sensor_id;sensor_type;location;lat;lon;timestamp;P1;durP1;ratioP1;P2;durP2;ratioP2
55467;SDS011;41332;42.702;23.200;2022-12-07T00:01:42;29.75;;;13.15;;
55467;SDS011;41332;42.702;23.200;2022-12-07T00:04:13;29.38;;;15.52;;
55467;SDS011;41332;42.702;23.200;2022-12-07T00:06:41;32.28;;;16.90;;
55467;SDS011;41332;42.702;23.200;2022-12-07T00:09:12;32.15;;;15.90;;
55467;SDS011;41332;42.702;23.200;2022-12-07T00:11:39;28.67;;;13.30;;
55467;SDS011;41332;42.702;23.200;2022-12-07T00:14:05;28.95;;;13.23;;
55467;SDS011;41332;42.702;23.200;2022-12-07T00:16:33;33.22;;;13.63;;
55467;SDS011;41332;42.702;23.200;2022-12-07T00:18:59;28.92;;;14.65;;
55467;SDS011;41332;42.702;23.200;2022-12-07T00:21:28;31.27;;;13.05;;
55467;SDS011;41332;42.702;23.200;2022-12-07T00:23:55;26.77;;;13.48;;
55467;SDS011;41332;42.702;23.200;2022-12-07T00:26:26;33.95;;;14.07;;
55467;SDS011;41332;42.702;23.200;2022-12-07T00:28:57;32.40;;;13.90;;
55467;SDS011;41332;42.702;23.200;2022-12-07T00:31:29;27.30;;;13.90;;
55467;SDS011;41332;42.702;23.200;2022-12-07T00:33:58;22.48;;;12.13;;
55467;SDS011;41332;42.702;23.200;2022-12-07T00:36:24;28.25;;;13.40;;
55467;SDS011;41332;42.702;23.200;2022-12-07T00:38:50;28.67;;;15.15;;
55467;SDS011;41332;42.702;23.200;2022-12-07T00:41:17;31.20;;;14.65;;
55467;SDS011;41332;42.702;23.200;2022-12-07T00:43:48;35.67;;;14.80;;
55467;SDS011;41332;42.702;23.200;2022-12-07T00:46:14;38.97;;;15.32;;
55467;SDS011;41332;42.702;23.200;2022-12-07T00:48:40;30.85;;;14.90;;
55467;SDS011;41332;42.702;23.200;2022-12-07T00:51:06;29.33;;;14.38;;
55467;SDS011;41332;42.702;23.200;2022-12-07T00:53:34;29.63;;;13.70;;
55467;SDS011;41332;42.702;23.200;2022-12-07T00:56:07;27.23;;;14.02;;
55467;SDS011;41332;42.702;23.200;2022-12-07T00:58:36;30.17;;;13.18;;
55467;SDS011;41332;42.702;23.200;2022-12-07T01:01:01;28.00;;;15.10;;
55467;SDS011;41332;42.702;23.200;2022-12-07T01:03:29;28.92;;;14.98;;
55467;SDS011;41332;42.702;23.200;2022-12-07T01:05:55;31.05;;;15.00;;
55467;SDS011;41332;42.702;23.200;2022-12-07T01:08:22;30.45;;;13.73;;
55467;SDS011;41332;42.702;23.200;2022-12-07T01:10:48;26.58;;;12.68;;
55467;SDS011;41332;42.702;23.200;2022-12-07T01:13:14;28.98;;;11.48;;
55467;SDS011;41332;42.702;23.200;2022-12-07T01:15:41;24.30;;;12.02;;
55467;SDS011;41332;42.702;23.200;2022-12-07T01:18:07;27.05;;;13.55;;
55467;SDS011;41332;42.702;23.200;2022-12-07T01:20:32;23.23;;;12.63;;
55467;SDS011;41332;42.702;23.200;2022-12-07T01:22:58;24.23;;;11.85;;
55467;SDS011;41332;42.702;23.200;2022-12-07T01:25:23;26.92;;;12.43;;
55467;SDS011;41332;42.702;23.200;2022-12-07T01:27:48;28.75;;;12.73;;
55467;SDS011;41332;42.702;23.200;2022-12-07T01:30:14;28.58;;;13.38;;
55467;SDS011;41332;42.702;23.200;2022-12-07T01:32:39;25.17;;;11.90;;
55467;SDS011;41332;42.702;23.200;2022-12-07T01:35:05;29.15;;;12.77;;
55467;SDS011;41332;42.702;23.200;2022-12-07T01:37:34;23.77;;;11.43;;
55467;SDS011;41332;42.702;23.200;2022-12-07T01:40:01;22.08;;;12.38;;
55467;SDS011;41332;42.702;23.200;2022-12-07T01:42:28;31.67;;;12.98;;
55467;SDS011;41332;42.702;23.200;2022-12-07T01:47:57;27.58;;;12.80;;
55467;SDS011;41332;42.702;23.200;2022-12-07T01:50:24;22.42;;;11.73;;
55467;SDS011;41332;42.702;23.200;2022-12-07T01:52:52;22.20;;;9.88;;
55467;SDS011;41332;42.702;23.200;2022-12-07T01:55:20;19.42;;;10.23;;
55467;SDS011;41332;42.702;23.200;2022-12-07T01:57:47;23.95;;;11.48;;
55467;SDS011;41332;42.702;23.200;2022-12-07T02:00:16;21.45;;;11.63;;
55467;SDS011;41332;42.702;23.200;2022-12-07T02:05:12;23.63;;;11.38;;
55467;SDS011;41332;42.702;23.200;2022-12-07T02:07:39;21.48;;;11.65;;
55467;SDS011;41332;42.702;23.200;2022-12-07T02:10:12;25.85;;;10.35;;
55467;SDS011;41332;42.702;23.200;2022-12-07T02:12:42;25.38;;;11.50;;
55467;SDS011;41332;42.702;23.200;2022-12-07T02:15:13;27.02;;;11.45;;
55467;SDS011;41332;42.702;23.200;2022-12-07T02:20:58;20.75;;;10.85;;
55467;SDS011;41332;42.702;23.200;2022-12-07T02:31:53;21.15;;;10.90;;
55467;SDS011;41332;42.702;23.200;2022-12-07T02:34:55;26.30;;;11.02;;
55467;SDS011;41332;42.702;23.200;2022-12-07T02:45:05;19.77;;;11.35;;
55467;SDS011;41332;42.702;23.200;2022-12-07T02:47:32;28.90;;;14.82;;
55467;SDS011;41332;42.702;23.200;2022-12-07T02:49:59;32.70;;;15.87;;
55467;SDS011;41332;42.702;23.200;2022-12-07T02:52:26;33.47;;;15.20;;
55467;SDS011;41332;42.702;23.200;2022-12-07T02:54:52;28.48;;;15.15;;
55467;SDS011;41332;42.702;23.200;2022-12-07T03:00:13;23.42;;;12.20;;
55467;SDS011;41332;42.702;23.200;2022-12-07T03:03:23;32.05;;;15.30;;
55467;SDS011;41332;42.702;23.200;2022-12-07T03:11:33;20.13;;;11.95;;
55467;SDS011;41332;42.702;23.200;2022-12-07T03:14:26;21.98;;;12.23;;
55467;SDS011;41332;42.702;23.200;2022-12-07T03:17:02;28.08;;;12.35;;
55467;SDS011;41332;42.702;23.200;2022-12-07T03:19:32;29.60;;;13.32;;
55467;SDS011;41332;42.702;23.200;2022-12-07T03:22:00;29.55;;;13.00;;
55467;SDS011;41332;42.702;23.200;2022-12-07T03:24:36;26.30;;;13.05;;
55467;SDS011;41332;42.702;23.200;2022-12-07T03:27:07;34.33;;;13.90;;
55467;SDS011;41332;42.702;23.200;2022-12-07T03:29:41;30.95;;;14.48;;
55467;SDS011;41332;42.702;23.200;2022-12-07T03:32:20;31.02;;;14.55;;
55467;SDS011;41332;42.702;23.200;2022-12-07T03:34:52;30.23;;;13.38;;
55467;SDS011;41332;42.702;23.200;2022-12-07T03:37:29;30.98;;;13.38;;
55467;SDS011;41332;42.702;23.200;2022-12-07T03:42:57;25.65;;;10.85;;
55467;SDS011;41332;42.702;23.200;2022-12-07T03:45:30;28.27;;;12.68;;
55467;SDS011;41332;42.702;23.200;2022-12-07T03:53:34;27.13;;;14.13;;
55467;SDS011;41332;42.702;23.200;2022-12-07T03:56:05;31.38;;;12.30;;
55467;SDS011;41332;42.702;23.200;2022-12-07T03:58:33;26.20;;;12.18;;
55467;SDS011;41332;42.702;23.200;2022-12-07T04:00:59;35.63;;;14.48;;
55467;SDS011;41332;42.702;23.200;2022-12-07T04:03:24;22.35;;;12.18;;
55467;SDS011;41332;42.702;23.200;2022-12-07T04:05:50;27.23;;;13.63;;
55467;SDS011;41332;42.702;23.200;2022-12-07T04:08:15;33.97;;;11.90;;
55467;SDS011;41332;42.702;23.200;2022-12-07T04:10:41;26.77;;;13.93;;
55467;SDS011;41332;42.702;23.200;2022-12-07T04:13:06;36.15;;;12.63;;
55467;SDS011;41332;42.702;23.200;2022-12-07T04:15:31;27.35;;;12.00;;
55467;SDS011;41332;42.702;23.200;2022-12-07T04:17:57;28.13;;;12.32;;
55467;SDS011;41332;42.702;23.200;2022-12-07T04:20:22;29.42;;;12.00;;
55467;SDS011;41332;42.702;23.200;2022-12-07T04:22:48;28.88;;;12.60;;
55467;SDS011;41332;42.702;23.200;2022-12-07T04:25:13;36.28;;;13.93;;
55467;SDS011;41332;42.702;23.200;2022-12-07T04:27:39;26.20;;;12.27;;
55467;SDS011;41332;42.702;23.200;2022-12-07T04:30:04;25.08;;;12.48;;
55467;SDS011;41332;42.702;23.200;2022-12-07T04:32:30;29.40;;;13.02;;
55467;SDS011;41332;42.702;23.200;2022-12-07T04:34:55;27.13;;;12.20;;
55467;SDS011;41332;42.702;23.200;2022-12-07T04:37:21;25.30;;;11.98;;
55467;SDS011;41332;42.702;23.200;2022-12-07T04:39:47;31.08;;;13.57;;
55467;SDS011;41332;42.702;23.200;2022-12-07T04:42:12;25.75;;;12.57;;
55467;SDS011;41332;42.702;23.200;2022-12-07T04:44:38;28.48;;;11.88;;
55467;SDS011;41332;42.702;23.200;2022-12-07T04:47:03;29.02;;;11.77;;
55467;SDS011;41332;42.702;23.200;2022-12-07T04:49:29;22.15;;;10.88;;
55467;SDS011;41332;42.702;23.200;2022-12-07T04:51:54;24.23;;;12.18;;
55467;SDS011;41332;42.702;23.200;2022-12-07T04:54:20;29.83;;;12.68;;
55467;SDS011;41332;42.702;23.200;2022-12-07T04:56:45;32.50;;;13.30;;
55467;SDS011;41332;42.702;23.200;2022-12-07T04:59:11;32.20;;;12.30;;
55467;SDS011;41332;42.702;23.200;2022-12-07T05:01:37;21.98;;;11.05;;
55467;SDS011;41332;42.702;23.200;2022-12-07T05:04:03;23.52;;;12.15;;
55467;SDS011;41332;42.702;23.200;2022-12-07T05:06:28;21.27;;;11.75;;
55467;SDS011;41332;42.702;23.200;2022-12-07T05:08:54;26.00;;;11.30;;
55467;SDS011;41332;42.702;23.200;2022-12-07T05:11:19;28.88;;;12.95;;
55467;SDS011;41332;42.702;23.200;2022-12-07T05:14:17;28.05;;;11.35;;
55467;SDS011;41332;42.702;23.200;2022-12-07T05:16:44;38.03;;;14.60;;
55467;SDS011;41332;42.702;23.200;2022-12-07T05:19:10;31.23;;;14.32;;
55467;SDS011;41332;42.702;23.200;2022-12-07T05:21:36;29.75;;;14.90;;
55467;SDS011;41332;42.702;23.200;2022-12-07T05:24:02;32.97;;;14.98;;
55467;SDS011;41332;42.702;23.200;2022-12-07T05:26:28;34.60;;;14.75;;
55467;SDS011;41332;42.702;23.200;2022-12-07T05:28:55;29.92;;;14.88;;
55467;SDS011;41332;42.702;23.200;2022-12-07T05:31:21;30.88;;;14.93;;
55467;SDS011;41332;42.702;23.200;2022-12-07T05:33:46;27.13;;;14.40;;
55467;SDS011;41332;42.702;23.200;2022-12-07T05:36:12;28.83;;;16.08;;
55467;SDS011;41332;42.702;23.200;2022-12-07T05:38:37;29.77;;;14.25;;
55467;SDS011;41332;42.702;23.200;2022-12-07T05:41:04;30.50;;;14.07;;
55467;SDS011;41332;42.702;23.200;2022-12-07T05:43:32;32.30;;;13.07;;
55467;SDS011;41332;42.702;23.200;2022-12-07T05:45:57;30.83;;;13.83;;
55467;SDS011;41332;42.702;23.200;2022-12-07T05:48:23;26.02;;;12.57;;
55467;SDS011;41332;42.702;23.200;2022-12-07T05:50:50;32.28;;;15.75;;
55467;SDS011;41332;42.702;23.200;2022-12-07T05:53:15;30.58;;;14.43;;
55467;SDS011;41332;42.702;23.200;2022-12-07T05:55:41;27.83;;;13.75;;
55467;SDS011;41332;42.702;23.200;2022-12-07T05:58:07;29.15;;;14.55;;
55467;SDS011;41332;42.702;23.200;2022-12-07T06:00:51;29.30;;;14.38;;
55467;SDS011;41332;42.702;23.200;2022-12-07T06:03:18;36.15;;;16.27;;
55467;SDS011;41332;42.702;23.200;2022-12-07T06:05:44;31.90;;;13.98;;
55467;SDS011;41332;42.702;23.200;2022-12-07T06:08:09;29.83;;;15.30;;
55467;SDS011;41332;42.702;23.200;2022-12-07T06:10:34;25.60;;;12.27;;
55467;SDS011;41332;42.702;23.200;2022-12-07T06:13:00;26.23;;;12.80;;
55467;SDS011;41332;42.702;23.200;2022-12-07T06:15:25;41.00;;;14.48;;
55467;SDS011;41332;42.702;23.200;2022-12-07T06:17:51;32.88;;;14.05;;
55467;SDS011;41332;42.702;23.200;2022-12-07T06:20:16;32.45;;;16.38;;
55467;SDS011;41332;42.702;23.200;2022-12-07T06:22:41;32.85;;;14.98;;
55467;SDS011;41332;42.702;23.200;2022-12-07T06:25:07;29.63;;;13.32;;
55467;SDS011;41332;42.702;23.200;2022-12-07T06:27:33;26.23;;;13.25;;
55467;SDS011;41332;42.702;23.200;2022-12-07T06:30:00;28.27;;;13.73;;
55467;SDS011;41332;42.702;23.200;2022-12-07T06:32:31;30.90;;;12.77;;
55467;SDS011;41332;42.702;23.200;2022-12-07T06:34:57;28.17;;;12.57;;
55467;SDS011;41332;42.702;23.200;2022-12-07T06:37:22;34.92;;;14.65;;
55467;SDS011;41332;42.702;23.200;2022-12-07T06:39:48;29.75;;;14.88;;
55467;SDS011;41332;42.702;23.200;2022-12-07T06:42:13;33.05;;;13.32;;
55467;SDS011;41332;42.702;23.200;2022-12-07T06:44:38;26.63;;;13.63;;
55467;SDS011;41332;42.702;23.200;2022-12-07T06:47:04;26.38;;;12.40;;
55467;SDS011;41332;42.702;23.200;2022-12-07T06:49:30;31.40;;;12.95;;
55467;SDS011;41332;42.702;23.200;2022-12-07T06:51:55;26.35;;;14.32;;
55467;SDS011;41332;42.702;23.200;2022-12-07T06:54:21;31.10;;;13.18;;
55467;SDS011;41332;42.702;23.200;2022-12-07T06:56:46;35.15;;;13.80;;
55467;SDS011;41332;42.702;23.200;2022-12-07T06:59:11;26.42;;;12.57;;
55467;SDS011;41332;42.702;23.200;2022-12-07T07:01:37;34.97;;;12.80;;
55467;SDS011;41332;42.702;23.200;2022-12-07T07:04:02;28.80;;;13.23;;
55467;SDS011;41332;42.702;23.200;2022-12-07T07:06:28;39.22;;;16.08;;
55467;SDS011;41332;42.702;23.200;2022-12-07T07:08:54;34.13;;;14.80;;
55467;SDS011;41332;42.702;23.200;2022-12-07T07:11:19;38.92;;;15.40;;
55467;SDS011;41332;42.702;23.200;2022-12-07T07:13:45;27.35;;;13.18;;
55467;SDS011;41332;42.702;23.200;2022-12-07T07:16:10;30.45;;;15.10;;
55467;SDS011;41332;42.702;23.200;2022-12-07T07:18:36;28.92;;;14.82;;
55467;SDS011;41332;42.702;23.200;2022-12-07T07:21:02;31.90;;;15.52;;
55467;SDS011;41332;42.702;23.200;2022-12-07T07:23:28;31.08;;;13.25;;
55467;SDS011;41332;42.702;23.200;2022-12-07T07:25:53;28.08;;;13.45;;
55467;SDS011;41332;42.702;23.200;2022-12-07T07:28:19;31.42;;;13.43;;
55467;SDS011;41332;42.702;23.200;2022-12-07T07:30:44;30.23;;;14.18;;
55467;SDS011;41332;42.702;23.200;2022-12-07T07:33:10;26.73;;;13.15;;
55467;SDS011;41332;42.702;23.200;2022-12-07T07:35:36;31.65;;;13.60;;
55467;SDS011;41332;42.702;23.200;2022-12-07T07:38:02;34.38;;;13.48;;
55467;SDS011;41332;42.702;23.200;2022-12-07T07:40:28;37.85;;;15.88;;
55467;SDS011;41332;42.702;23.200;2022-12-07T07:42:54;39.45;;;15.35;;
55467;SDS011;41332;42.702;23.200;2022-12-07T07:45:20;27.80;;;13.48;;
55467;SDS011;41332;42.702;23.200;2022-12-07T07:47:47;34.63;;;15.43;;
55467;SDS011;41332;42.702;23.200;2022-12-07T07:50:12;31.65;;;14.38;;
55467;SDS011;41332;42.702;23.200;2022-12-07T07:52:38;31.13;;;13.30;;
55467;SDS011;41332;42.702;23.200;2022-12-07T07:55:04;37.08;;;14.82;;
55467;SDS011;41332;42.702;23.200;2022-12-07T07:57:30;31.27;;;13.75;;
55467;SDS011;41332;42.702;23.200;2022-12-07T07:59:55;35.60;;;13.45;;
55467;SDS011;41332;42.702;23.200;2022-12-07T08:02:21;36.05;;;13.55;;
55467;SDS011;41332;42.702;23.200;2022-12-07T08:04:47;47.72;;;19.15;;
55467;SDS011;41332;42.702;23.200;2022-12-07T08:07:13;32.83;;;15.05;;
55467;SDS011;41332;42.702;23.200;2022-12-07T08:09:39;37.67;;;15.73;;
55467;SDS011;41332;42.702;23.200;2022-12-07T08:12:05;34.22;;;14.68;;
55467;SDS011;41332;42.702;23.200;2022-12-07T08:14:30;40.53;;;15.93;;
55467;SDS011;41332;42.702;23.200;2022-12-07T08:16:56;34.75;;;17.52;;
55467;SDS011;41332;42.702;23.200;2022-12-07T08:19:22;27.42;;;13.05;;
55467;SDS011;41332;42.702;23.200;2022-12-07T08:21:47;33.92;;;15.95;;
55467;SDS011;41332;42.702;23.200;2022-12-07T08:24:13;32.53;;;14.82;;
55467;SDS011;41332;42.702;23.200;2022-12-07T08:26:38;27.92;;;14.75;;
55467;SDS011;41332;42.702;23.200;2022-12-07T08:29:04;30.55;;;13.60;;
55467;SDS011;41332;42.702;23.200;2022-12-07T08:31:29;25.65;;;13.18;;
55467;SDS011;41332;42.702;23.200;2022-12-07T08:33:55;28.67;;;13.90;;
55467;SDS011;41332;42.702;23.200;2022-12-07T08:36:20;28.98;;;13.85;;
55467;SDS011;41332;42.702;23.200;2022-12-07T08:38:47;28.73;;;13.35;;
55467;SDS011;41332;42.702;23.200;2022-12-07T08:41:13;25.98;;;14.15;;
55467;SDS011;41332;42.702;23.200;2022-12-07T08:43:38;35.55;;;15.38;;
55467;SDS011;41332;42.702;23.200;2022-12-07T08:46:17;32.67;;;14.57;;
55467;SDS011;41332;42.702;23.200;2022-12-07T08:48:53;33.42;;;16.13;;
55467;SDS011;41332;42.702;23.200;2022-12-07T08:51:21;38.13;;;15.82;;
55467;SDS011;41332;42.702;23.200;2022-12-07T08:53:48;37.65;;;19.05;;
55467;SDS011;41332;42.702;23.200;2022-12-07T08:56:14;52.80;;;21.27;;
55467;SDS011;41332;42.702;23.200;2022-12-07T08:58:40;37.38;;;17.27;;
55467;SDS011;41332;42.702;23.200;2022-12-07T09:01:06;41.00;;;18.48;;
55467;SDS011;41332;42.702;23.200;2022-12-07T09:03:31;44.03;;;19.75;;
55467;SDS011;41332;42.702;23.200;2022-12-07T09:05:57;43.63;;;22.23;;
55467;SDS011;41332;42.702;23.200;2022-12-07T09:08:25;49.13;;;23.95;;
55467;SDS011;41332;42.702;23.200;2022-12-07T09:10:54;53.17;;;22.40;;
55467;SDS011;41332;42.702;23.200;2022-12-07T09:13:19;54.85;;;23.75;;
55467;SDS011;41332;42.702;23.200;2022-12-07T09:15:44;46.47;;;22.88;;
55467;SDS011;41332;42.702;23.200;2022-12-07T09:18:10;49.83;;;25.73;;
55467;SDS011;41332;42.702;23.200;2022-12-07T09:20:35;36.38;;;20.88;;
55467;SDS011;41332;42.702;23.200;2022-12-07T09:23:01;50.75;;;22.67;;
55467;SDS011;41332;42.702;23.200;2022-12-07T09:25:26;45.00;;;21.90;;
55467;SDS011;41332;42.702;23.200;2022-12-07T09:27:55;52.15;;;24.50;;
55467;SDS011;41332;42.702;23.200;2022-12-07T09:30:21;49.60;;;23.05;;
55467;SDS011;41332;42.702;23.200;2022-12-07T09:32:47;46.40;;;21.15;;
55467;SDS011;41332;42.702;23.200;2022-12-07T09:35:15;45.20;;;22.20;;
55467;SDS011;41332;42.702;23.200;2022-12-07T09:37:40;51.08;;;22.30;;
55467;SDS011;41332;42.702;23.200;2022-12-07T09:40:06;42.38;;;21.85;;
55467;SDS011;41332;42.702;23.200;2022-12-07T09:42:33;41.92;;;20.50;;
55467;SDS011;41332;42.702;23.200;2022-12-07T09:45:00;41.45;;;21.48;;
55467;SDS011;41332;42.702;23.200;2022-12-07T09:47:27;43.38;;;21.75;;
55467;SDS011;41332;42.702;23.200;2022-12-07T09:49:55;48.17;;;25.20;;
55467;SDS011;41332;42.702;23.200;2022-12-07T09:52:30;47.33;;;23.25;;
55467;SDS011;41332;42.702;23.200;2022-12-07T09:54:57;55.75;;;26.58;;
55467;SDS011;41332;42.702;23.200;2022-12-07T09:57:32;54.92;;;26.38;;
55467;SDS011;41332;42.702;23.200;2022-12-07T10:00:00;53.30;;;27.13;;
55467;SDS011;41332;42.702;23.200;2022-12-07T10:02:39;62.05;;;31.75;;
55467;SDS011;41332;42.702;23.200;2022-12-07T10:05:10;53.13;;;29.15;;
55467;SDS011;41332;42.702;23.200;2022-12-07T10:07:43;51.30;;;27.88;;
55467;SDS011;41332;42.702;23.200;2022-12-07T10:10:13;49.30;;;27.90;;
55467;SDS011;41332;42.702;23.200;2022-12-07T10:15:42;47.65;;;24.40;;
55467;SDS011;41332;42.702;23.200;2022-12-07T10:23:39;40.53;;;20.02;;
55467;SDS011;41332;42.702;23.200;2022-12-07T10:26:19;39.55;;;19.45;;
55467;SDS011;41332;42.702;23.200;2022-12-07T10:29:24;41.53;;;20.75;;
55467;SDS011;41332;42.702;23.200;2022-12-07T10:31:53;37.80;;;19.48;;
55467;SDS011;41332;42.702;23.200;2022-12-07T10:39:48;40.38;;;16.77;;
55467;SDS011;41332;42.702;23.200;2022-12-07T10:42:23;35.00;;;17.98;;
55467;SDS011;41332;42.702;23.200;2022-12-07T10:44:49;34.83;;;17.15;;
55467;SDS011;41332;42.702;23.200;2022-12-07T10:47:36;30.17;;;17.25;;
55467;SDS011;41332;42.702;23.200;2022-12-07T10:53:10;34.47;;;18.50;;
55467;SDS011;41332;42.702;23.200;2022-12-07T10:56:01;36.63;;;19.02;;
55467;SDS011;41332;42.702;23.200;2022-12-07T11:15:12;26.85;;;12.85;;
55467;SDS011;41332;42.702;23.200;2022-12-07T11:23:44;33.33;;;16.45;;
55467;SDS011;41332;42.702;23.200;2022-12-07T11:36:51;33.88;;;18.42;;
55467;SDS011;41332;42.702;23.200;2022-12-07T11:41:45;41.95;;;18.33;;
55467;SDS011;41332;42.702;23.200;2022-12-07T11:49:54;33.22;;;15.50;;
55467;SDS011;41332;42.702;23.200;2022-12-07T11:52:22;34.78;;;19.10;;
55467;SDS011;41332;42.702;23.200;2022-12-07T11:54:55;44.67;;;17.80;;
55467;SDS011;41332;42.702;23.200;2022-12-07T11:57:25;33.83;;;17.05;;
55467;SDS011;41332;42.702;23.200;2022-12-07T11:59:59;41.65;;;19.40;;
55467;SDS011;41332;42.702;23.200;2022-12-07T12:02:36;29.50;;;14.13;;
55467;SDS011;41332;42.702;23.200;2022-12-07T12:05:24;24.77;;;14.60;;
55467;SDS011;41332;42.702;23.200;2022-12-07T12:08:12;26.40;;;14.40;;
55467;SDS011;41332;42.702;23.200;2022-12-07T12:10:58;33.55;;;15.77;;
55467;SDS011;41332;42.702;23.200;2022-12-07T12:22:22;23.13;;;12.80;;
55467;SDS011;41332;42.702;23.200;2022-12-07T12:24:55;23.67;;;11.35;;
55467;SDS011;41332;42.702;23.200;2022-12-07T12:27:26;18.20;;;10.57;;
55467;SDS011;41332;42.702;23.200;2022-12-07T12:29:55;16.95;;;9.23;;
55467;SDS011;41332;42.702;23.200;2022-12-07T12:32:29;16.83;;;9.88;;
55467;SDS011;41332;42.702;23.200;2022-12-07T12:35:48;19.42;;;10.65;;
55467;SDS011;41332;42.702;23.200;2022-12-07T12:44:01;31.05;;;15.38;;
55467;SDS011;41332;42.702;23.200;2022-12-07T12:51:43;34.78;;;16.15;;
55467;SDS011;41332;42.702;23.200;2022-12-07T12:54:20;34.28;;;18.05;;
55467;SDS011;41332;42.702;23.200;2022-12-07T13:01:54;31.00;;;16.67;;
55467;SDS011;41332;42.702;23.200;2022-12-07T13:04:34;35.13;;;15.90;;
55467;SDS011;41332;42.702;23.200;2022-12-07T13:20:57;27.65;;;15.57;;
55467;SDS011;41332;42.702;23.200;2022-12-07T13:26:39;27.67;;;13.82;;
55467;SDS011;41332;42.702;23.200;2022-12-07T13:31:52;36.83;;;15.23;;
55467;SDS011;41332;42.702;23.200;2022-12-07T13:34:53;28.15;;;14.73;;
55467;SDS011;41332;42.702;23.200;2022-12-07T13:37:21;25.98;;;13.38;;
55467;SDS011;41332;42.702;23.200;2022-12-07T13:39:52;23.00;;;14.38;;
55467;SDS011;41332;42.702;23.200;2022-12-07T13:42:22;24.05;;;12.23;;
55467;SDS011;41332;42.702;23.200;2022-12-07T13:44:51;28.92;;;12.57;;
55467;SDS011;41332;42.702;23.200;2022-12-07T13:47:18;29.02;;;13.23;;
55467;SDS011;41332;42.702;23.200;2022-12-07T13:50:01;32.53;;;13.98;;
55467;SDS011;41332;42.702;23.200;2022-12-07T13:52:27;23.63;;;14.07;;
55467;SDS011;41332;42.702;23.200;2022-12-07T13:57:22;22.40;;;12.95;;
55467;SDS011;41332;42.702;23.200;2022-12-07T14:02:22;21.08;;;9.82;;
55467;SDS011;41332;42.702;23.200;2022-12-07T14:04:49;24.08;;;10.52;;
55467;SDS011;41332;42.702;23.200;2022-12-07T14:07:20;16.83;;;10.70;;
55467;SDS011;41332;42.702;23.200;2022-12-07T14:09:55;18.13;;;10.13;;
55467;SDS011;41332;42.702;23.200;2022-12-07T14:12:26;33.80;;;11.73;;
55467;SDS011;41332;42.702;23.200;2022-12-07T14:14:53;23.15;;;11.82;;
55467;SDS011;41332;42.702;23.200;2022-12-07T14:17:22;27.42;;;12.88;;
55467;SDS011;41332;42.702;23.200;2022-12-07T14:19:50;24.80;;;13.15;;
55467;SDS011;41332;42.702;23.200;2022-12-07T14:24:49;21.35;;;12.05;;
55467;SDS011;41332;42.702;23.200;2022-12-07T14:27:22;23.08;;;11.93;;
55467;SDS011;41332;42.702;23.200;2022-12-07T14:29:50;21.90;;;11.25;;
55467;SDS011;41332;42.702;23.200;2022-12-07T14:34:55;25.30;;;12.57;;
55467;SDS011;41332;42.702;23.200;2022-12-07T14:37:42;19.83;;;10.75;;
55467;SDS011;41332;42.702;23.200;2022-12-07T14:40:14;19.48;;;10.95;;
55467;SDS011;41332;42.702;23.200;2022-12-07T14:42:41;20.05;;;11.68;;
55467;SDS011;41332;42.702;23.200;2022-12-07T14:45:13;21.70;;;10.70;;
55467;SDS011;41332;42.702;23.200;2022-12-07T14:47:40;23.15;;;12.73;;
55467;SDS011;41332;42.702;23.200;2022-12-07T14:50:06;22.42;;;12.60;;
55467;SDS011;41332;42.702;23.200;2022-12-07T14:52:31;25.88;;;12.85;;
55467;SDS011;41332;42.702;23.200;2022-12-07T14:54:58;20.42;;;12.73;;
55467;SDS011;41332;42.702;23.200;2022-12-07T14:57:23;35.75;;;14.73;;
55467;SDS011;41332;42.702;23.200;2022-12-07T14:59:48;27.65;;;13.90;;
55467;SDS011;41332;42.702;23.200;2022-12-07T15:02:14;25.20;;;12.73;;
55467;SDS011;41332;42.702;23.200;2022-12-07T15:04:40;28.75;;;13.43;;
55467;SDS011;41332;42.702;23.200;2022-12-07T15:07:09;25.95;;;14.27;;
55467;SDS011;41332;42.702;23.200;2022-12-07T15:09:41;26.05;;;12.50;;
55467;SDS011;41332;42.702;23.200;2022-12-07T15:12:06;28.75;;;12.05;;
55467;SDS011;41332;42.702;23.200;2022-12-07T15:14:32;25.83;;;12.07;;
55467;SDS011;41332;42.702;23.200;2022-12-07T15:16:57;20.80;;;12.82;;
55467;SDS011;41332;42.702;23.200;2022-12-07T15:19:23;25.77;;;12.70;;
55467;SDS011;41332;42.702;23.200;2022-12-07T15:21:51;22.85;;;11.30;;
55467;SDS011;41332;42.702;23.200;2022-12-07T15:24:17;26.70;;;11.68;;
55467;SDS011;41332;42.702;23.200;2022-12-07T15:26:43;22.13;;;10.93;;
55467;SDS011;41332;42.702;23.200;2022-12-07T15:29:09;28.75;;;12.32;;
55467;SDS011;41332;42.702;23.200;2022-12-07T15:31:35;27.00;;;11.38;;
55467;SDS011;41332;42.702;23.200;2022-12-07T15:34:01;32.95;;;12.55;;
55467;SDS011;41332;42.702;23.200;2022-12-07T15:36:27;24.40;;;12.77;;
55467;SDS011;41332;42.702;23.200;2022-12-07T15:38:54;25.70;;;13.18;;
55467;SDS011;41332;42.702;23.200;2022-12-07T15:41:20;24.50;;;13.27;;
55467;SDS011;41332;42.702;23.200;2022-12-07T15:43:46;29.77;;;12.90;;
55467;SDS011;41332;42.702;23.200;2022-12-07T15:46:35;30.05;;;12.95;;
55467;SDS011;41332;42.702;23.200;2022-12-07T15:49:02;25.35;;;12.20;;
55467;SDS011;41332;42.702;23.200;2022-12-07T15:51:29;34.53;;;14.27;;
55467;SDS011;41332;42.702;23.200;2022-12-07T15:53:55;28.58;;;11.95;;
55467;SDS011;41332;42.702;23.200;2022-12-07T15:58:48;21.85;;;11.38;;
55467;SDS011;41332;42.702;23.200;2022-12-07T16:01:14;23.52;;;10.48;;
55467;SDS011;41332;42.702;23.200;2022-12-07T16:06:06;27.20;;;10.95;;
55467;SDS011;41332;42.702;23.200;2022-12-07T16:08:32;23.63;;;10.52;;
55467;SDS011;41332;42.702;23.200;2022-12-07T16:10:58;19.88;;;10.38;;
55467;SDS011;41332;42.702;23.200;2022-12-07T16:13:23;18.73;;;9.88;;
55467;SDS011;41332;42.702;23.200;2022-12-07T16:15:48;21.08;;;10.55;;
55467;SDS011;41332;42.702;23.200;2022-12-07T16:18:14;26.13;;;11.70;;
55467;SDS011;41332;42.702;23.200;2022-12-07T16:20:39;20.67;;;10.38;;
55467;SDS011;41332;42.702;23.200;2022-12-07T16:23:05;19.58;;;9.70;;
55467;SDS011;41332;42.702;23.200;2022-12-07T16:25:30;30.13;;;18.40;;
55467;SDS011;41332;42.702;23.200;2022-12-07T16:27:56;27.52;;;15.27;;
55467;SDS011;41332;42.702;23.200;2022-12-07T16:30:21;24.10;;;13.05;;
55467;SDS011;41332;42.702;23.200;2022-12-07T16:32:47;28.38;;;15.57;;
55467;SDS011;41332;42.702;23.200;2022-12-07T16:35:12;26.00;;;12.70;;
55467;SDS011;41332;42.702;23.200;2022-12-07T16:37:38;19.88;;;11.95;;
55467;SDS011;41332;42.702;23.200;2022-12-07T16:40:04;19.13;;;11.48;;
55467;SDS011;41332;42.702;23.200;2022-12-07T16:42:33;18.95;;;10.82;;
55467;SDS011;41332;42.702;23.200;2022-12-07T16:44:59;15.57;;;9.52;;
55467;SDS011;41332;42.702;23.200;2022-12-07T16:47:25;17.95;;;9.70;;
55467;SDS011;41332;42.702;23.200;2022-12-07T16:49:50;24.70;;;10.55;;
55467;SDS011;41332;42.702;23.200;2022-12-07T16:52:17;21.75;;;11.20;;
55467;SDS011;41332;42.702;23.200;2022-12-07T16:54:43;23.92;;;12.57;;
55467;SDS011;41332;42.702;23.200;2022-12-07T16:57:08;26.38;;;13.52;;